L78 weather

Jacumba Airport
Jacumba, California, United States

Public forecast

Using degrees Fahrenheit for public forecast. Weather courtesy of forecast.io.

METAR (pilot weather report)

Closest report is El Centro NAF Airport (Vraciu Field), 28.0 nm (51.9 km) ENE. Retrieved 2019/08/21 17:56 UTC (37 minutes ago):

KNJK 211756Z 15006KT 10SM CLR 40/06 A2974 RMK AO2 SLP087 T04000056 10406 20211 50002

TAF (pilot weather forecast)

Forecast is more than 12 hours old.

Closest forecast is El Centro NAF Airport (Vraciu Field), 28.0 nm (51.9 km) ENE. Retrieved 2016/08/04 23:15 UTC (3 years ago):

TAF KNJK 032300Z 0323/0423 VRB06KT 9999 FEW080 FEW280 TEMPO 0323/0405 14010KT FM040600 VRB06KT FEW280 QNH2968INS AUTOMATED SENSOR METWATCH 0406 TIL 0413 TX41/0323Z TN28/0412Z FS30081